sensor_id;sensor_type;location;lat;lon;timestamp;P1;durP1;ratioP1;P2;durP2;ratioP2
54139;SDS011;40046;53.254;5.900;2023-05-10T00:01:16;4.40;;;3.55;;
54139;SDS011;40046;53.254;5.900;2023-05-10T00:03:42;5.03;;;4.53;;
54139;SDS011;40046;53.254;5.900;2023-05-10T00:06:08;4.35;;;3.95;;
54139;SDS011;40046;53.254;5.900;2023-05-10T00:08:34;3.78;;;3.17;;
54139;SDS011;40046;53.254;5.900;2023-05-10T00:11:01;4.55;;;3.42;;
54139;SDS011;40046;53.254;5.900;2023-05-10T00:13:27;3.33;;;2.55;;
54139;SDS011;40046;53.254;5.900;2023-05-10T00:15:53;4.80;;;2.35;;
54139;SDS011;40046;53.254;5.900;2023-05-10T00:18:19;2.97;;;2.38;;
54139;SDS011;40046;53.254;5.900;2023-05-10T00:20:45;5.03;;;2.65;;
54139;SDS011;40046;53.254;5.900;2023-05-10T00:23:12;2.47;;;1.88;;
54139;SDS011;40046;53.254;5.900;2023-05-10T00:25:38;3.35;;;2.08;;
54139;SDS011;40046;53.254;5.900;2023-05-10T00:28:04;3.13;;;1.75;;
54139;SDS011;40046;53.254;5.900;2023-05-10T00:30:30;2.53;;;1.90;;
54139;SDS011;40046;53.254;5.900;2023-05-10T00:32:56;4.30;;;2.88;;
54139;SDS011;40046;53.254;5.900;2023-05-10T00:35:22;3.30;;;2.53;;
54139;SDS011;40046;53.254;5.900;2023-05-10T00:37:49;4.20;;;3.28;;
54139;SDS011;40046;53.254;5.900;2023-05-10T00:40:15;4.30;;;3.83;;
54139;SDS011;40046;53.254;5.900;2023-05-10T00:42:45;6.03;;;4.28;;
54139;SDS011;40046;53.254;5.900;2023-05-10T00:45:11;6.80;;;5.25;;
54139;SDS011;40046;53.254;5.900;2023-05-10T00:47:37;7.13;;;5.70;;
54139;SDS011;40046;53.254;5.900;2023-05-10T00:50:04;5.30;;;4.80;;
54139;SDS011;40046;53.254;5.900;2023-05-10T00:52:30;6.25;;;5.00;;
54139;SDS011;40046;53.254;5.900;2023-05-10T00:54:57;6.28;;;5.68;;
54139;SDS011;40046;53.254;5.900;2023-05-10T00:57:23;6.47;;;5.03;;
54139;SDS011;40046;53.254;5.900;2023-05-10T00:59:50;6.00;;;5.38;;
54139;SDS011;40046;53.254;5.900;2023-05-10T01:02:16;8.55;;;4.93;;
54139;SDS011;40046;53.254;5.900;2023-05-10T01:04:42;6.28;;;5.55;;
54139;SDS011;40046;53.254;5.900;2023-05-10T01:07:09;6.55;;;5.78;;
54139;SDS011;40046;53.254;5.900;2023-05-10T01:09:36;7.05;;;6.35;;
54139;SDS011;40046;53.254;5.900;2023-05-10T01:12:03;7.00;;;6.30;;
54139;SDS011;40046;53.254;5.900;2023-05-10T01:14:32;9.60;;;7.20;;
54139;SDS011;40046;53.254;5.900;2023-05-10T01:16:59;10.50;;;7.88;;
54139;SDS011;40046;53.254;5.900;2023-05-10T01:19:26;15.35;;;10.77;;
54139;SDS011;40046;53.254;5.900;2023-05-10T01:24:37;16.08;;;10.60;;
54139;SDS011;40046;53.254;5.900;2023-05-10T01:32:27;18.88;;;10.57;;
54139;SDS011;40046;53.254;5.900;2023-05-10T01:40:20;17.00;;;10.48;;
54139;SDS011;40046;53.254;5.900;2023-05-10T01:42:52;15.98;;;10.43;;
54139;SDS011;40046;53.254;5.900;2023-05-10T01:48:10;13.63;;;9.45;;
54139;SDS011;40046;53.254;5.900;2023-05-10T01:50:38;14.52;;;8.65;;
54139;SDS011;40046;53.254;5.900;2023-05-10T01:53:06;11.27;;;7.97;;
54139;SDS011;40046;53.254;5.900;2023-05-10T01:55:34;10.32;;;7.60;;
54139;SDS011;40046;53.254;5.900;2023-05-10T01:58:06;8.95;;;6.70;;
54139;SDS011;40046;53.254;5.900;2023-05-10T02:00:33;7.25;;;4.60;;
54139;SDS011;40046;53.254;5.900;2023-05-10T02:03:01;3.95;;;3.08;;
54139;SDS011;40046;53.254;5.900;2023-05-10T02:05:29;3.50;;;2.60;;
54139;SDS011;40046;53.254;5.900;2023-05-10T02:07:57;3.20;;;2.30;;
54139;SDS011;40046;53.254;5.900;2023-05-10T02:10:25;3.25;;;2.03;;
54139;SDS011;40046;53.254;5.900;2023-05-10T02:12:52;3.58;;;1.70;;
54139;SDS011;40046;53.254;5.900;2023-05-10T02:15:20;4.40;;;1.50;;
54139;SDS011;40046;53.254;5.900;2023-05-10T02:17:48;1.55;;;1.15;;
54139;SDS011;40046;53.254;5.900;2023-05-10T02:20:14;1.67;;;1.10;;
54139;SDS011;40046;53.254;5.900;2023-05-10T02:22:41;1.65;;;1.00;;
54139;SDS011;40046;53.254;5.900;2023-05-10T02:25:08;1.75;;;1.17;;
54139;SDS011;40046;53.254;5.900;2023-05-10T02:27:36;1.50;;;1.00;;
54139;SDS011;40046;53.254;5.900;2023-05-10T02:30:02;2.20;;;1.10;;
54139;SDS011;40046;53.254;5.900;2023-05-10T02:32:30;2.00;;;1.25;;
54139;SDS011;40046;53.254;5.900;2023-05-10T02:34:57;1.38;;;0.90;;
54139;SDS011;40046;53.254;5.900;2023-05-10T02:37:24;1.23;;;0.85;;
54139;SDS011;40046;53.254;5.900;2023-05-10T02:39:52;1.73;;;1.00;;
54139;SDS011;40046;53.254;5.900;2023-05-10T02:42:19;1.67;;;0.80;;
54139;SDS011;40046;53.254;5.900;2023-05-10T02:44:48;2.08;;;0.90;;
54139;SDS011;40046;53.254;5.900;2023-05-10T02:47:16;1.73;;;1.05;;
54139;SDS011;40046;53.254;5.900;2023-05-10T02:49:43;2.08;;;0.70;;
54139;SDS011;40046;53.254;5.900;2023-05-10T02:52:09;1.30;;;0.70;;
54139;SDS011;40046;53.254;5.900;2023-05-10T02:54:39;1.67;;;0.80;;
54139;SDS011;40046;53.254;5.900;2023-05-10T02:57:06;1.88;;;0.90;;
54139;SDS011;40046;53.254;5.900;2023-05-10T02:59:33;2.35;;;0.68;;
54139;SDS011;40046;53.254;5.900;2023-05-10T03:01:59;1.92;;;0.70;;
54139;SDS011;40046;53.254;5.900;2023-05-10T03:04:26;1.33;;;0.70;;
54139;SDS011;40046;53.254;5.900;2023-05-10T03:06:54;1.58;;;0.70;;
54139;SDS011;40046;53.254;5.900;2023-05-10T03:09:21;2.00;;;1.13;;
54139;SDS011;40046;53.254;5.900;2023-05-10T03:14:25;2.15;;;1.38;;
54139;SDS011;40046;53.254;5.900;2023-05-10T03:19:32;3.88;;;2.25;;
54139;SDS011;40046;53.254;5.900;2023-05-10T03:22:03;4.03;;;2.47;;
54139;SDS011;40046;53.254;5.900;2023-05-10T03:24:34;7.97;;;3.57;;
54139;SDS011;40046;53.254;5.900;2023-05-10T03:27:02;8.57;;;4.32;;
54139;SDS011;40046;53.254;5.900;2023-05-10T03:29:30;9.02;;;5.28;;
54139;SDS011;40046;53.254;5.900;2023-05-10T03:31:58;13.25;;;7.00;;
54139;SDS011;40046;53.254;5.900;2023-05-10T03:34:25;11.27;;;6.85;;
54139;SDS011;40046;53.254;5.900;2023-05-10T03:36:51;11.90;;;6.82;;
54139;SDS011;40046;53.254;5.900;2023-05-10T03:39:18;13.90;;;7.63;;
54139;SDS011;40046;53.254;5.900;2023-05-10T03:41:50;11.32;;;7.20;;
54139;SDS011;40046;53.254;5.900;2023-05-10T03:44:16;11.98;;;8.15;;
54139;SDS011;40046;53.254;5.900;2023-05-10T03:46:42;13.85;;;8.48;;
54139;SDS011;40046;53.254;5.900;2023-05-10T03:49:09;12.93;;;9.35;;
54139;SDS011;40046;53.254;5.900;2023-05-10T03:51:35;11.95;;;9.02;;
54139;SDS011;40046;53.254;5.900;2023-05-10T03:54:02;10.77;;;8.02;;
54139;SDS011;40046;53.254;5.900;2023-05-10T03:56:29;9.25;;;8.10;;
54139;SDS011;40046;53.254;5.900;2023-05-10T03:58:55;9.75;;;8.02;;
54139;SDS011;40046;53.254;5.900;2023-05-10T04:01:22;9.13;;;8.13;;
54139;SDS011;40046;53.254;5.900;2023-05-10T04:03:48;7.28;;;6.57;;
54139;SDS011;40046;53.254;5.900;2023-05-10T04:06:14;8.45;;;6.90;;
54139;SDS011;40046;53.254;5.900;2023-05-10T04:08:40;7.18;;;6.47;;
54139;SDS011;40046;53.254;5.900;2023-05-10T04:11:10;8.85;;;7.18;;
54139;SDS011;40046;53.254;5.900;2023-05-10T04:13:38;11.57;;;8.60;;
54139;SDS011;40046;53.254;5.900;2023-05-10T04:16:04;9.65;;;8.38;;
54139;SDS011;40046;53.254;5.900;2023-05-10T04:18:30;11.00;;;9.90;;
54139;SDS011;40046;53.254;5.900;2023-05-10T04:20:57;11.50;;;10.30;;
54139;SDS011;40046;53.254;5.900;2023-05-10T04:23:23;11.30;;;10.30;;
54139;SDS011;40046;53.254;5.900;2023-05-10T04:25:49;13.02;;;11.50;;
54139;SDS011;40046;53.254;5.900;2023-05-10T04:28:15;11.20;;;10.10;;
54139;SDS011;40046;53.254;5.900;2023-05-10T04:30:41;11.70;;;10.60;;
54139;SDS011;40046;53.254;5.900;2023-05-10T04:33:07;11.65;;;10.55;;
54139;SDS011;40046;53.254;5.900;2023-05-10T04:35:34;9.00;;;8.20;;
54139;SDS011;40046;53.254;5.900;2023-05-10T04:38:00;8.25;;;7.47;;
54139;SDS011;40046;53.254;5.900;2023-05-10T04:40:26;7.18;;;6.50;;
54139;SDS011;40046;53.254;5.900;2023-05-10T04:42:52;5.15;;;4.63;;
54139;SDS011;40046;53.254;5.900;2023-05-10T04:45:19;3.72;;;2.90;;
54139;SDS011;40046;53.254;5.900;2023-05-10T04:47:45;2.90;;;2.40;;
54139;SDS011;40046;53.254;5.900;2023-05-10T04:50:11;2.38;;;1.70;;
54139;SDS011;40046;53.254;5.900;2023-05-10T04:52:37;2.20;;;1.50;;
54139;SDS011;40046;53.254;5.900;2023-05-10T04:55:04;2.33;;;1.40;;
54139;SDS011;40046;53.254;5.900;2023-05-10T04:57:32;2.92;;;1.42;;
54139;SDS011;40046;53.254;5.900;2023-05-10T04:59:59;2.65;;;1.90;;
54139;SDS011;40046;53.254;5.900;2023-05-10T05:02:25;3.30;;;2.60;;
54139;SDS011;40046;53.254;5.900;2023-05-10T05:04:51;3.42;;;2.95;;
54139;SDS011;40046;53.254;5.900;2023-05-10T05:07:17;4.55;;;3.45;;
54139;SDS011;40046;53.254;5.900;2023-05-10T05:09:44;3.78;;;3.28;;
54139;SDS011;40046;53.254;5.900;2023-05-10T05:12:10;4.70;;;3.97;;
54139;SDS011;40046;53.254;5.900;2023-05-10T05:14:39;5.47;;;4.45;;
54139;SDS011;40046;53.254;5.900;2023-05-10T05:17:06;6.15;;;5.13;;
54139;SDS011;40046;53.254;5.900;2023-05-10T05:19:32;5.53;;;4.88;;
54139;SDS011;40046;53.254;5.900;2023-05-10T05:21:59;5.63;;;5.10;;
54139;SDS011;40046;53.254;5.900;2023-05-10T05:24:25;5.85;;;5.03;;
54139;SDS011;40046;53.254;5.900;2023-05-10T05:26:51;5.15;;;4.65;;
54139;SDS011;40046;53.254;5.900;2023-05-10T05:29:17;6.53;;;4.93;;
54139;SDS011;40046;53.254;5.900;2023-05-10T05:31:43;5.72;;;5.10;;
54139;SDS011;40046;53.254;5.900;2023-05-10T05:34:09;5.47;;;4.97;;
54139;SDS011;40046;53.254;5.900;2023-05-10T05:36:38;5.85;;;5.15;;
54139;SDS011;40046;53.254;5.900;2023-05-10T05:39:04;5.95;;;5.35;;
54139;SDS011;40046;53.254;5.900;2023-05-10T05:41:31;6.13;;;5.40;;
54139;SDS011;40046;53.254;5.900;2023-05-10T05:43:57;6.07;;;4.97;;
54139;SDS011;40046;53.254;5.900;2023-05-10T05:46:23;5.28;;;4.78;;
54139;SDS011;40046;53.254;5.900;2023-05-10T05:48:49;5.93;;;5.43;;
54139;SDS011;40046;53.254;5.900;2023-05-10T05:51:15;6.35;;;5.70;;
54139;SDS011;40046;53.254;5.900;2023-05-10T05:53:42;7.38;;;6.50;;
54139;SDS011;40046;53.254;5.900;2023-05-10T05:56:08;7.35;;;6.60;;
54139;SDS011;40046;53.254;5.900;2023-05-10T05:58:34;7.57;;;6.63;;
54139;SDS011;40046;53.254;5.900;2023-05-10T06:01:00;6.35;;;5.55;;
54139;SDS011;40046;53.254;5.900;2023-05-10T06:03:27;7.63;;;5.60;;
54139;SDS011;40046;53.254;5.900;2023-05-10T06:05:53;6.53;;;5.80;;
54139;SDS011;40046;53.254;5.900;2023-05-10T06:08:19;5.82;;;4.72;;
54139;SDS011;40046;53.254;5.900;2023-05-10T06:10:45;4.90;;;4.28;;
54139;SDS011;40046;53.254;5.900;2023-05-10T06:13:11;5.95;;;3.97;;
54139;SDS011;40046;53.254;5.900;2023-05-10T06:15:38;5.28;;;3.40;;
54139;SDS011;40046;53.254;5.900;2023-05-10T06:18:04;5.35;;;3.28;;
54139;SDS011;40046;53.254;5.900;2023-05-10T06:20:32;3.97;;;2.97;;
54139;SDS011;40046;53.254;5.900;2023-05-10T06:22:58;3.55;;;2.35;;
54139;SDS011;40046;53.254;5.900;2023-05-10T06:25:24;3.53;;;2.70;;
54139;SDS011;40046;53.254;5.900;2023-05-10T06:27:50;4.70;;;2.63;;
54139;SDS011;40046;53.254;5.900;2023-05-10T06:30:22;3.92;;;2.50;;
54139;SDS011;40046;53.254;5.900;2023-05-10T06:32:52;2.70;;;1.80;;
54139;SDS011;40046;53.254;5.900;2023-05-10T06:35:18;4.43;;;2.60;;
54139;SDS011;40046;53.254;5.900;2023-05-10T06:37:44;2.80;;;1.83;;
54139;SDS011;40046;53.254;5.900;2023-05-10T06:40:11;3.25;;;2.00;;
54139;SDS011;40046;53.254;5.900;2023-05-10T06:42:37;3.53;;;2.30;;
54139;SDS011;40046;53.254;5.900;2023-05-10T06:45:04;4.10;;;2.58;;
54139;SDS011;40046;53.254;5.900;2023-05-10T06:47:30;3.80;;;2.80;;
54139;SDS011;40046;53.254;5.900;2023-05-10T06:49:56;4.00;;;2.97;;
54139;SDS011;40046;53.254;5.900;2023-05-10T06:52:23;4.68;;;2.80;;
54139;SDS011;40046;53.254;5.900;2023-05-10T06:54:49;6.28;;;4.45;;
54139;SDS011;40046;53.254;5.900;2023-05-10T06:57:15;3.80;;;3.03;;
54139;SDS011;40046;53.254;5.900;2023-05-10T06:59:41;7.00;;;3.05;;
54139;SDS011;40046;53.254;5.900;2023-05-10T07:02:07;4.25;;;3.10;;
54139;SDS011;40046;53.254;5.900;2023-05-10T07:04:33;5.15;;;3.17;;
54139;SDS011;40046;53.254;5.900;2023-05-10T07:07:00;5.30;;;3.60;;
54139;SDS011;40046;53.254;5.900;2023-05-10T07:09:26;3.92;;;3.08;;
54139;SDS011;40046;53.254;5.900;2023-05-10T07:11:52;5.03;;;3.40;;
54139;SDS011;40046;53.254;5.900;2023-05-10T07:14:19;4.60;;;2.85;;
54139;SDS011;40046;53.254;5.900;2023-05-10T07:16:45;4.47;;;3.03;;
54139;SDS011;40046;53.254;5.900;2023-05-10T07:19:11;3.83;;;2.80;;
54139;SDS011;40046;53.254;5.900;2023-05-10T07:21:37;3.78;;;2.50;;
54139;SDS011;40046;53.254;5.900;2023-05-10T07:24:05;5.13;;;2.78;;
54139;SDS011;40046;53.254;5.900;2023-05-10T07:26:31;4.05;;;2.40;;
54139;SDS011;40046;53.254;5.900;2023-05-10T07:28:57;4.32;;;2.60;;
54139;SDS011;40046;53.254;5.900;2023-05-10T07:31:23;5.25;;;2.88;;
54139;SDS011;40046;53.254;5.900;2023-05-10T07:33:50;4.18;;;2.53;;
54139;SDS011;40046;53.254;5.900;2023-05-10T07:36:16;4.00;;;2.67;;
54139;SDS011;40046;53.254;5.900;2023-05-10T07:38:42;6.47;;;3.92;;
54139;SDS011;40046;53.254;5.900;2023-05-10T07:41:08;5.57;;;3.33;;
54139;SDS011;40046;53.254;5.900;2023-05-10T07:43:34;5.18;;;2.85;;
54139;SDS011;40046;53.254;5.900;2023-05-10T07:46:01;5.18;;;2.92;;
54139;SDS011;40046;53.254;5.900;2023-05-10T07:48:27;5.15;;;3.20;;
54139;SDS011;40046;53.254;5.900;2023-05-10T07:50:53;5.03;;;3.50;;
54139;SDS011;40046;53.254;5.900;2023-05-10T07:53:19;7.13;;;4.35;;
54139;SDS011;40046;53.254;5.900;2023-05-10T07:55:53;5.93;;;4.82;;
54139;SDS011;40046;53.254;5.900;2023-05-10T07:58:20;6.43;;;5.50;;
54139;SDS011;40046;53.254;5.900;2023-05-10T08:00:46;5.90;;;5.00;;
54139;SDS011;40046;53.254;5.900;2023-05-10T08:03:13;10.27;;;5.60;;
54139;SDS011;40046;53.254;5.900;2023-05-10T08:05:40;6.85;;;5.60;;
54139;SDS011;40046;53.254;5.900;2023-05-10T08:08:06;7.45;;;4.97;;
54139;SDS011;40046;53.254;5.900;2023-05-10T08:10:32;4.40;;;2.90;;
54139;SDS011;40046;53.254;5.900;2023-05-10T08:12:58;4.32;;;2.67;;
54139;SDS011;40046;53.254;5.900;2023-05-10T08:15:25;4.72;;;2.58;;
54139;SDS011;40046;53.254;5.900;2023-05-10T08:17:51;4.25;;;2.40;;
54139;SDS011;40046;53.254;5.900;2023-05-10T08:20:17;3.92;;;2.65;;
54139;SDS011;40046;53.254;5.900;2023-05-10T08:22:47;5.22;;;3.03;;
54139;SDS011;40046;53.254;5.900;2023-05-10T08:25:13;8.48;;;2.90;;
54139;SDS011;40046;53.254;5.900;2023-05-10T08:27:39;4.75;;;2.65;;
54139;SDS011;40046;53.254;5.900;2023-05-10T08:30:05;5.38;;;3.08;;
54139;SDS011;40046;53.254;5.900;2023-05-10T08:32:32;6.00;;;3.97;;
54139;SDS011;40046;53.254;5.900;2023-05-10T08:35:00;5.95;;;3.95;;
54139;SDS011;40046;53.254;5.900;2023-05-10T08:37:29;7.15;;;3.83;;
54139;SDS011;40046;53.254;5.900;2023-05-10T08:39:55;5.68;;;3.63;;
54139;SDS011;40046;53.254;5.900;2023-05-10T08:42:22;4.68;;;3.55;;
54139;SDS011;40046;53.254;5.900;2023-05-10T08:44:49;6.53;;;3.63;;
54139;SDS011;40046;53.254;5.900;2023-05-10T08:47:16;6.00;;;3.88;;
54139;SDS011;40046;53.254;5.900;2023-05-10T08:49:44;5.20;;;4.28;;
54139;SDS011;40046;53.254;5.900;2023-05-10T08:52:16;6.90;;;5.18;;
54139;SDS011;40046;53.254;5.900;2023-05-10T08:54:42;5.18;;;4.38;;
54139;SDS011;40046;53.254;5.900;2023-05-10T08:57:09;6.45;;;4.07;;
54139;SDS011;40046;53.254;5.900;2023-05-10T08:59:36;9.65;;;5.88;;
54139;SDS011;40046;53.254;5.900;2023-05-10T09:02:04;6.68;;;5.07;;
54139;SDS011;40046;53.254;5.900;2023-05-10T09:04:30;6.20;;;4.20;;
54139;SDS011;40046;53.254;5.900;2023-05-10T09:06:57;5.60;;;4.07;;
54139;SDS011;40046;53.254;5.900;2023-05-10T09:09:23;6.35;;;4.80;;
54139;SDS011;40046;53.254;5.900;2023-05-10T09:11:49;6.50;;;5.32;;
54139;SDS011;40046;53.254;5.900;2023-05-10T09:14:16;5.93;;;5.15;;
54139;SDS011;40046;53.254;5.900;2023-05-10T09:16:42;7.03;;;5.25;;
54139;SDS011;40046;53.254;5.900;2023-05-10T09:19:09;6.30;;;5.65;;
54139;SDS011;40046;53.254;5.900;2023-05-10T09:21:35;7.28;;;5.82;;
54139;SDS011;40046;53.254;5.900;2023-05-10T09:24:06;8.02;;;5.53;;
54139;SDS011;40046;53.254;5.900;2023-05-10T09:26:33;8.10;;;6.60;;
54139;SDS011;40046;53.254;5.900;2023-05-10T09:29:00;6.65;;;5.18;;
54139;SDS011;40046;53.254;5.900;2023-05-10T09:31:44;6.28;;;5.35;;
54139;SDS011;40046;53.254;5.900;2023-05-10T09:34:14;8.63;;;6.07;;
54139;SDS011;40046;53.254;5.900;2023-05-10T09:36:54;7.22;;;5.93;;
54139;SDS011;40046;53.254;5.900;2023-05-10T09:39:29;16.55;;;8.48;;
54139;SDS011;40046;53.254;5.900;2023-05-10T09:41:56;9.05;;;7.95;;
54139;SDS011;40046;53.254;5.900;2023-05-10T09:44:22;9.15;;;7.68;;
54139;SDS011;40046;53.254;5.900;2023-05-10T09:46:49;9.43;;;6.55;;
54139;SDS011;40046;53.254;5.900;2023-05-10T09:49:18;12.45;;;7.53;;
54139;SDS011;40046;53.254;5.900;2023-05-10T09:51:45;9.77;;;7.63;;
54139;SDS011;40046;53.254;5.900;2023-05-10T09:54:12;9.23;;;7.55;;
54139;SDS011;40046;53.254;5.900;2023-05-10T09:56:39;9.40;;;6.90;;
54139;SDS011;40046;53.254;5.900;2023-05-10T09:59:06;8.45;;;6.10;;
54139;SDS011;40046;53.254;5.900;2023-05-10T10:01:33;10.35;;;6.53;;
54139;SDS011;40046;53.254;5.900;2023-05-10T10:04:09;9.65;;;7.70;;
54139;SDS011;40046;53.254;5.900;2023-05-10T10:06:37;13.82;;;9.52;;
54139;SDS011;40046;53.254;5.900;2023-05-10T10:09:03;9.55;;;6.97;;
54139;SDS011;40046;53.254;5.900;2023-05-10T10:11:30;6.07;;;5.47;;
54139;SDS011;40046;53.254;5.900;2023-05-10T10:13:56;7.43;;;6.60;;
54139;SDS011;40046;53.254;5.900;2023-05-10T10:16:22;7.63;;;5.38;;
54139;SDS011;40046;53.254;5.900;2023-05-10T10:18:48;9.85;;;5.53;;
54139;SDS011;40046;53.254;5.900;2023-05-10T10:21:15;10.82;;;6.18;;
54139;SDS011;40046;53.254;5.900;2023-05-10T10:23:41;11.85;;;7.70;;
54139;SDS011;40046;53.254;5.900;2023-05-10T10:26:08;8.60;;;7.15;;
54139;SDS011;40046;53.254;5.900;2023-05-10T10:31:11;6.20;;;5.25;;
54139;SDS011;40046;53.254;5.900;2023-05-10T10:36:06;8.75;;;6.72;;
54139;SDS011;40046;53.254;5.900;2023-05-10T10:41:27;8.15;;;7.30;;
54139;SDS011;40046;53.254;5.900;2023-05-10T10:49:23;8.63;;;6.85;;
54139;SDS011;40046;53.254;5.900;2023-05-10T10:54:34;10.27;;;9.25;;
54139;SDS011;40046;53.254;5.900;2023-05-10T10:57:10;7.78;;;6.97;;
54139;SDS011;40046;53.254;5.900;2023-05-10T10:59:41;8.40;;;7.55;;
54139;SDS011;40046;53.254;5.900;2023-05-10T11:02:08;9.13;;;7.43;;
54139;SDS011;40046;53.254;5.900;2023-05-10T11:04:41;7.05;;;6.30;;
54139;SDS011;40046;53.254;5.900;2023-05-10T11:07:18;7.50;;;6.45;;
54139;SDS011;40046;53.254;5.900;2023-05-10T11:09:48;7.30;;;6.53;;
54139;SDS011;40046;53.254;5.900;2023-05-10T11:12:14;7.28;;;6.32;;
54139;SDS011;40046;53.254;5.900;2023-05-10T11:14:40;7.20;;;6.50;;
54139;SDS011;40046;53.254;5.900;2023-05-10T11:17:22;6.88;;;6.18;;
54139;SDS011;40046;53.254;5.900;2023-05-10T11:20:07;7.57;;;6.78;;
54139;SDS011;40046;53.254;5.900;2023-05-10T11:22:53;7.65;;;6.50;;
54139;SDS011;40046;53.254;5.900;2023-05-10T11:25:22;8.35;;;7.00;;
54139;SDS011;40046;53.254;5.900;2023-05-10T11:27:51;8.30;;;7.15;;
54139;SDS011;40046;53.254;5.900;2023-05-10T11:30:18;8.48;;;7.57;;
54139;SDS011;40046;53.254;5.900;2023-05-10T11:32:44;9.30;;;7.07;;
54139;SDS011;40046;53.254;5.900;2023-05-10T11:35:11;6.75;;;6.13;;
54139;SDS011;40046;53.254;5.900;2023-05-10T11:37:38;7.55;;;6.60;;
54139;SDS011;40046;53.254;5.900;2023-05-10T11:40:08;11.70;;;7.07;;
54139;SDS011;40046;53.254;5.900;2023-05-10T11:42:37;9.88;;;7.60;;
54139;SDS011;40046;53.254;5.900;2023-05-10T11:45:04;7.63;;;6.80;;
54139;SDS011;40046;53.254;5.900;2023-05-10T11:47:30;8.40;;;7.60;;
54139;SDS011;40046;53.254;5.900;2023-05-10T11:49:57;8.73;;;7.82;;
54139;SDS011;40046;53.254;5.900;2023-05-10T11:52:23;8.77;;;7.90;;
54139;SDS011;40046;53.254;5.900;2023-05-10T11:54:50;8.48;;;7.30;;
54139;SDS011;40046;53.254;5.900;2023-05-10T11:57:18;10.07;;;9.18;;
54139;SDS011;40046;53.254;5.900;2023-05-10T11:59:45;9.45;;;8.45;;
54139;SDS011;40046;53.254;5.900;2023-05-10T12:02:12;10.95;;;9.57;;
54139;SDS011;40046;53.254;5.900;2023-05-10T12:04:38;11.15;;;10.05;;
54139;SDS011;40046;53.254;5.900;2023-05-10T12:07:04;10.90;;;9.75;;
54139;SDS011;40046;53.254;5.900;2023-05-10T12:09:30;10.75;;;9.65;;
54139;SDS011;40046;53.254;5.900;2023-05-10T12:11:57;12.13;;;10.82;;
54139;SDS011;40046;53.254;5.900;2023-05-10T12:14:23;11.15;;;9.98;;
54139;SDS011;40046;53.254;5.900;2023-05-10T12:16:49;13.38;;;10.35;;
54139;SDS011;40046;53.254;5.900;2023-05-10T12:19:19;13.35;;;10.32;;
54139;SDS011;40046;53.254;5.900;2023-05-10T12:21:48;10.88;;;8.60;;
54139;SDS011;40046;53.254;5.900;2023-05-10T12:24:14;10.65;;;8.98;;
54139;SDS011;40046;53.254;5.900;2023-05-10T12:26:47;9.13;;;8.20;;
54139;SDS011;40046;53.254;5.900;2023-05-10T12:29:14;9.55;;;7.97;;
54139;SDS011;40046;53.254;5.900;2023-05-10T12:31:52;10.10;;;7.93;;
54139;SDS011;40046;53.254;5.900;2023-05-10T12:34:32;9.88;;;7.43;;
54139;SDS011;40046;53.254;5.900;2023-05-10T12:36:59;8.85;;;6.80;;
54139;SDS011;40046;53.254;5.900;2023-05-10T12:39:25;9.05;;;6.88;;
54139;SDS011;40046;53.254;5.900;2023-05-10T12:41:52;7.43;;;6.65;;
54139;SDS011;40046;53.254;5.900;2023-05-10T12:44:18;8.75;;;7.82;;
54139;SDS011;40046;53.254;5.900;2023-05-10T12:46:44;9.32;;;6.43;;
54139;SDS011;40046;53.254;5.900;2023-05-10T12:49:10;9.00;;;7.20;;
54139;SDS011;40046;53.254;5.900;2023-05-10T12:51:36;9.80;;;8.80;;
54139;SDS011;40046;53.254;5.900;2023-05-10T12:54:03;12.07;;;9.25;;
54139;SDS011;40046;53.254;5.900;2023-05-10T12:56:29;9.85;;;8.70;;
54139;SDS011;40046;53.254;5.900;2023-05-10T12:58:55;9.10;;;8.20;;
54139;SDS011;40046;53.254;5.900;2023-05-10T13:01:21;8.48;;;7.50;;
54139;SDS011;40046;53.254;5.900;2023-05-10T13:03:47;10.35;;;8.77;;
54139;SDS011;40046;53.254;5.900;2023-05-10T13:06:13;10.55;;;9.45;;
54139;SDS011;40046;53.254;5.900;2023-05-10T13:08:40;9.80;;;8.73;;
54139;SDS011;40046;53.254;5.900;2023-05-10T13:11:06;10.38;;;8.05;;
54139;SDS011;40046;53.254;5.900;2023-05-10T13:13:33;9.73;;;7.55;;
54139;SDS011;40046;53.254;5.900;2023-05-10T13:15:59;8.10;;;7.22;;
54139;SDS011;40046;53.254;5.900;2023-05-10T13:18:25;9.45;;;7.90;;
54139;SDS011;40046;53.254;5.900;2023-05-10T13:20:51;9.05;;;7.95;;
54139;SDS011;40046;53.254;5.900;2023-05-10T13:23:17;9.95;;;8.32;;
54139;SDS011;40046;53.254;5.900;2023-05-10T13:25:43;10.55;;;7.63;;
54139;SDS011;40046;53.254;5.900;2023-05-10T13:28:10;7.97;;;6.63;;
54139;SDS011;40046;53.254;5.900;2023-05-10T13:30:36;7.63;;;6.65;;
54139;SDS011;40046;53.254;5.900;2023-05-10T13:33:02;8.82;;;6.72;;
54139;SDS011;40046;53.254;5.900;2023-05-10T13:35:28;7.30;;;6.43;;
54139;SDS011;40046;53.254;5.900;2023-05-10T13:37:54;6.80;;;5.95;;
54139;SDS011;40046;53.254;5.900;2023-05-10T13:40:22;9.00;;;8.15;;
54139;SDS011;40046;53.254;5.900;2023-05-10T13:42:48;8.98;;;8.07;;
54139;SDS011;40046;53.254;5.900;2023-05-10T13:45:15;9.10;;;7.22;;
54139;SDS011;40046;53.254;5.900;2023-05-10T13:47:41;6.93;;;5.60;;
54139;SDS011;40046;53.254;5.900;2023-05-10T13:50:07;6.20;;;5.60;;
54139;SDS011;40046;53.254;5.900;2023-05-10T13:52:33;5.72;;;5.05;;
54139;SDS011;40046;53.254;5.900;2023-05-10T13:55:00;5.78;;;5.03;;
54139;SDS011;40046;53.254;5.900;2023-05-10T13:57:26;4.95;;;4.20;;
54139;SDS011;40046;53.254;5.900;2023-05-10T13:59:53;5.03;;;4.15;;
54139;SDS011;40046;53.254;5.900;2023-05-10T14:02:20;5.90;;;4.53;;
54139;SDS011;40046;53.254;5.900;2023-05-10T14:04:46;5.47;;;4.30;;
54139;SDS011;40046;53.254;5.900;2023-05-10T14:07:13;6.53;;;4.65;;
54139;SDS011;40046;53.254;5.900;2023-05-10T14:09:39;5.53;;;4.97;;
54139;SDS011;40046;53.254;5.900;2023-05-10T14:12:05;5.15;;;4.65;;
54139;SDS011;40046;53.254;5.900;2023-05-10T14:14:31;6.53;;;5.13;;
54139;SDS011;40046;53.254;5.900;2023-05-10T14:16:57;7.78;;;6.97;;
54139;SDS011;40046;53.254;5.900;2023-05-10T14:19:24;5.68;;;5.05;;
54139;SDS011;40046;53.254;5.900;2023-05-10T14:21:52;7.72;;;5.65;;
54139;SDS011;40046;53.254;5.900;2023-05-10T14:24:18;5.40;;;4.90;;
54139;SDS011;40046;53.254;5.900;2023-05-10T14:26:44;5.93;;;4.32;;
54139;SDS011;40046;53.254;5.900;2023-05-10T14:29:10;6.38;;;4.55;;
54139;SDS011;40046;53.254;5.900;2023-05-10T14:31:36;5.80;;;4.18;;
54139;SDS011;40046;53.254;5.900;2023-05-10T14:34:02;5.30;;;3.42;;
54139;SDS011;40046;53.254;5.900;2023-05-10T14:36:29;5.78;;;2.95;;
54139;SDS011;40046;53.254;5.900;2023-05-10T14:38:55;4.28;;;3.20;;
54139;SDS011;40046;53.254;5.900;2023-05-10T14:41:21;5.78;;;5.10;;
54139;SDS011;40046;53.254;5.900;2023-05-10T14:43:48;7.85;;;5.15;;
54139;SDS011;40046;53.254;5.900;2023-05-10T14:46:14;6.70;;;6.10;;
54139;SDS011;40046;53.254;5.900;2023-05-10T14:48:41;6.68;;;6.07;;
54139;SDS011;40046;53.254;5.900;2023-05-10T14:51:07;6.60;;;5.35;;
54139;SDS011;40046;53.254;5.900;2023-05-10T14:53:33;6.45;;;5.75;;
54139;SDS011;40046;53.254;5.900;2023-05-10T14:55:59;5.28;;;4.75;;
54139;SDS011;40046;53.254;5.900;2023-05-10T14:58:28;5.85;;;4.78;;
54139;SDS011;40046;53.254;5.900;2023-05-10T15:00:58;6.00;;;4.25;;
54139;SDS011;40046;53.254;5.900;2023-05-10T15:03:24;6.22;;;5.63;;
54139;SDS011;40046;53.254;5.900;2023-05-10T15:05:50;5.40;;;4.90;;
54139;SDS011;40046;53.254;5.900;2023-05-10T15:08:17;5.30;;;4.80;;
54139;SDS011;40046;53.254;5.900;2023-05-10T15:10:43;5.82;;;4.90;;
54139;SDS011;40046;53.254;5.900;2023-05-10T15:13:09;5.72;;;4.78;;
54139;SDS011;40046;53.254;5.900;2023-05-10T15:15:35;5.35;;;4.85;;
54139;SDS011;40046;53.254;5.900;2023-05-10T15:18:01;5.15;;;4.65;;
54139;SDS011;40046;53.254;5.900;2023-05-10T15:20:27;5.78;;;5.28;;
54139;SDS011;40046;53.254;5.900;2023-05-10T15:22:54;7.38;;;5.60;;